Time;durP1;ratioP1;P1;durP2;ratioP2;P2;SDS_P1;SDS_P2;PMS_P1;PMS_P2;Temp;Humidity;BMP_temperature;BMP_pressure;BME280_temperature;BME280_humidity;BME280_pressure;Samples;Min_cycle;Max_cycle;Signal;HPM_P1;HPM_P2
2023/03/19 00:00:56;;;;;;;0.10;0.10;;;9.90;99.90;230.40;231737.00;;;;5042103;28;20233;-74
2023/03/19 00:03:24;;;;;;;0.10;0.10;;;9.90;99.90;230.40;231737.00;;;;5040916;28;20198;-73
2023/03/19 00:05:53;;;;;;;0.10;0.10;;;9.90;99.90;230.40;231737.00;;;;5052000;28;20198;-73
2023/03/19 00:08:23;;;;;;;0.10;0.10;;;9.80;99.90;230.40;231737.00;;;;5046425;28;20201;-73
2023/03/19 00:10:51;;;;;;;0.10;0.10;;;9.80;99.90;230.40;231737.00;;;;5046388;28;20591;-73
2023/03/19 00:13:21;;;;;;;0.10;0.10;;;9.80;99.90;230.40;231737.00;;;;5041384;28;20668;-73
2023/03/19 00:15:49;;;;;;;0.10;0.10;;;9.80;99.90;230.40;231737.00;;;;5053550;28;20554;-73
2023/03/19 00:18:17;;;;;;;0.10;0.10;;;9.70;99.90;230.40;231737.00;;;;5047814;28;20195;-73
2023/03/19 00:20:45;;;;;;;0.10;0.10;;;9.70;99.90;230.40;231737.00;;;;5028922;28;20604;-73
2023/03/19 00:23:14;;;;;;;0.10;0.10;;;9.70;99.90;230.40;231737.00;;;;5047718;28;20195;-73
2023/03/19 00:25:42;;;;;;;0.10;0.10;;;9.70;99.90;230.40;231737.00;;;;5033431;28;20647;-72
2023/03/19 00:28:10;;;;;;;0.10;0.10;;;9.70;99.90;230.40;231737.00;;;;5060823;28;20539;-72
2023/03/19 00:30:40;;;;;;;0.10;0.10;;;9.70;99.90;230.40;231737.00;;;;5033528;28;20226;-72
2023/03/19 00:33:09;;;;;;;0.10;0.10;;;9.70;99.90;230.40;231737.00;;;;5051531;28;20636;-72
2023/03/19 00:35:40;;;;;;;0.10;0.10;;;9.70;99.90;230.40;231737.00;;;;5037664;28;20198;-73
2023/03/19 00:38:08;;;;;;;0.10;0.10;;;9.60;99.90;230.40;231737.00;;;;5031368;28;20240;-72
2023/03/19 00:40:36;;;;;;;0.10;0.10;;;9.60;99.90;230.40;231737.00;;;;5040218;28;20231;-72
2023/03/19 00:43:05;;;;;;;0.10;0.10;;;9.60;99.90;230.40;231737.00;;;;5049229;28;20203;-72
2023/03/19 00:45:33;;;;;;;0.10;0.10;;;9.60;99.90;230.40;231737.00;;;;5040903;28;20195;-72
2023/03/19 00:48:03;;;;;;;0.10;0.10;;;9.60;99.90;230.40;231737.00;;;;5045434;28;20187;-72
2023/03/19 00:50:31;;;;;;;0.10;0.10;;;9.60;99.90;230.40;231737.00;;;;5039813;28;20309;-74
2023/03/19 00:53:00;;;;;;;0.10;0.10;;;9.50;99.90;230.40;231737.00;;;;5051542;28;20191;-72
2023/03/19 00:55:28;;;;;;;0.10;0.10;;;9.50;99.90;230.40;231737.00;;;;5047570;28;20566;-72
2023/03/19 00:57:56;;;;;;;0.10;0.10;;;9.50;99.90;230.40;231737.00;;;;5054516;28;20202;-72
2023/03/19 01:00:24;;;;;;;0.10;0.10;;;9.50;99.90;230.40;231737.00;;;;5053330;23;20227;-72
2023/03/19 01:02:52;;;;;;;0.10;0.10;;;9.50;99.90;230.40;231737.00;;;;5030381;28;20289;-74
2023/03/19 01:05:21;;;;;;;0.10;0.10;;;9.40;99.90;230.40;231737.00;;;;5027898;28;20732;-72
2023/03/19 01:07:51;;;;;;;0.10;0.10;;;9.40;99.90;230.40;231737.00;;;;5041383;28;20203;-72
2023/03/19 01:10:20;;;;;;;0.10;0.10;;;9.40;99.90;230.40;231737.00;;;;5023294;28;20649;-72
2023/03/19 01:12:50;;;;;;;0.10;0.10;;;9.30;99.90;230.40;231737.00;;;;5021051;28;20195;-73
2023/03/19 01:15:19;;;;;;;0.10;0.10;;;9.30;99.90;230.40;231737.00;;;;5014063;28;20195;-73
2023/03/19 01:17:47;;;;;;;0.10;0.10;;;9.30;99.90;230.40;231737.00;;;;5023681;28;20207;-74
2023/03/19 01:20:17;;;;;;;0.10;0.10;;;9.20;99.90;230.40;231737.00;;;;5029911;28;20215;-73
2023/03/19 01:22:47;;;;;;;0.10;0.10;;;9.20;99.90;230.40;231737.00;;;;5047316;28;20706;-73
2023/03/19 01:25:15;;;;;;;0.10;0.10;;;9.20;99.90;230.40;231737.00;;;;5037849;28;20195;-73
2023/03/19 01:27:54;;;;;;;0.10;0.10;;;9.30;99.90;230.40;231737.00;;;;5039874;28;20207;-72
2023/03/19 01:30:22;;;;;;;0.10;0.10;;;9.20;99.90;230.40;231737.00;;;;5031030;28;20234;-73
2023/03/19 01:33:11;;;;;;;0.10;0.10;;;9.20;99.90;230.40;231737.00;;;;5031585;28;20682;-74
2023/03/19 01:36:12;;;;;;;0.10;0.10;;;9.20;99.90;230.40;231737.00;;;;5010279;28;20199;-73
2023/03/19 01:38:59;;;;;;;0.10;0.10;;;9.10;99.90;230.40;231737.00;;;;5019921;28;20575;-73
2023/03/19 01:41:29;;;;;;;0.10;0.10;;;9.10;99.90;230.40;231737.00;;;;5010431;28;20629;-73
2023/03/19 01:44:23;;;;;;;0.10;0.10;;;9.00;99.90;230.40;231737.00;;;;5031880;28;20203;-73
2023/03/19 01:47:19;;;;;;;0.10;0.10;;;9.00;99.90;230.40;231737.00;;;;5021126;28;20226;-72
2023/03/19 01:50:26;;;;;;;0.10;0.10;;;8.90;99.90;230.40;231737.00;;;;5014217;28;20226;-73
2023/03/19 01:53:18;;;;;;;0.10;0.10;;;8.80;99.90;230.40;231737.00;;;;5020468;28;20203;-73
2023/03/19 01:56:10;;;;;;;0.10;0.10;;;8.80;99.90;230.40;231737.00;;;;5040870;28;20231;-74
2023/03/19 01:58:55;;;;;;;0.10;0.10;;;8.70;99.90;230.40;231737.00;;;;5033827;28;20210;-72
2023/03/19 02:01:47;;;;;;;0.10;0.10;;;8.70;99.90;230.40;231737.00;;;;5023122;28;20689;-74
2023/03/19 02:04:15;;;;;;;0.10;0.10;;;8.60;99.90;230.40;231737.00;;;;5035815;28;20222;-74
2023/03/19 02:06:45;;;;;;;0.10;0.10;;;8.50;99.90;230.40;231737.00;;;;5042056;28;20203;-73
2023/03/19 02:09:14;;;;;;;0.10;0.10;;;8.50;99.90;230.40;231737.00;;;;5018594;28;20192;-72
2023/03/19 02:11:45;;;;;;;0.10;0.10;;;8.50;99.90;230.40;231737.00;;;;5018557;28;20203;-73
2023/03/19 02:14:13;;;;;;;0.10;0.10;;;8.40;99.90;230.40;231737.00;;;;5034887;28;20195;-73
2023/03/19 02:16:42;;;;;;;0.10;0.10;;;8.40;99.90;230.40;231737.00;;;;5018791;28;20223;-73
2023/03/19 02:19:18;;;;;;;0.10;0.10;;;8.40;99.90;230.40;231737.00;;;;5029706;28;20196;-73
2023/03/19 02:21:47;;;;;;;0.10;0.10;;;8.40;99.90;230.40;231737.00;;;;5019594;28;20714;-73
2023/03/19 02:24:25;;;;;;;0.10;0.10;;;8.30;99.90;230.40;231737.00;;;;5050848;28;20192;-73
2023/03/19 02:27:06;;;;;;;0.10;0.10;;;8.10;99.90;230.40;231737.00;;;;5033790;28;20208;-71
2023/03/19 02:29:38;;;;;;;0.10;0.10;;;7.90;99.90;230.40;231737.00;;;;5015570;28;20287;-72
2023/03/19 02:32:08;;;;;;;0.10;0.10;;;7.90;99.90;230.40;231737.00;;;;5030918;28;20215;-72
2023/03/19 02:34:39;;;;;;;0.10;0.10;;;7.80;99.90;230.40;231737.00;;;;5024601;28;20202;-72
2023/03/19 02:37:16;;;;;;;0.10;0.10;;;7.80;99.90;230.40;231737.00;;;;5043159;28;20683;-73
2023/03/19 02:39:55;;;;;;;0.10;0.10;;;7.80;99.90;230.40;231737.00;;;;5031604;28;20219;-72
2023/03/19 02:42:28;;;;;;;0.10;0.10;;;7.90;99.90;230.40;231737.00;;;;5017928;28;20242;-72
2023/03/19 02:44:57;;;;;;;0.10;0.10;;;7.80;99.90;230.40;231737.00;;;;5040829;28;20290;-72
2023/03/19 02:47:26;;;;;;;0.13;0.13;;;7.80;99.90;230.40;231737.00;;;;5018454;28;20238;-73
2023/03/19 02:49:55;;;;;;;0.10;0.10;;;7.70;99.90;230.40;231737.00;;;;5030972;28;20319;-71
2023/03/19 02:52:23;;;;;;;0.10;0.10;;;7.70;99.90;230.40;231737.00;;;;5039331;28;20234;-72
2023/03/19 02:54:51;;;;;;;0.10;0.10;;;7.70;99.90;230.40;231737.00;;;;5015165;28;20200;-72
2023/03/19 02:57:20;;;;;;;0.10;0.10;;;7.70;99.90;230.40;231737.00;;;;5017498;28;20204;-73
2023/03/19 02:59:49;;;;;;;0.10;0.10;;;7.70;99.90;230.40;231737.00;;;;5026717;28;20446;-72
2023/03/19 03:02:17;;;;;;;0.10;0.10;;;7.80;99.90;230.40;231737.00;;;;5025271;28;20226;-72
2023/03/19 03:04:47;;;;;;;0.10;0.10;;;7.80;99.90;230.40;231737.00;;;;5019180;28;20226;-74
2023/03/19 03:07:16;;;;;;;0.10;0.10;;;7.80;99.90;230.40;231737.00;;;;5029751;28;20566;-73
2023/03/19 03:09:44;;;;;;;0.10;0.10;;;7.80;99.90;230.40;231737.00;;;;5026207;28;20219;-74
2023/03/19 03:12:12;;;;;;;0.10;0.10;;;7.80;99.90;230.40;231737.00;;;;5021049;28;20233;-72
2023/03/19 03:14:40;;;;;;;0.10;0.10;;;7.70;99.90;230.40;231737.00;;;;5019648;28;20208;-72
2023/03/19 03:17:10;;;;;;;0.10;0.10;;;7.70;99.90;230.40;231737.00;;;;5025094;28;20203;-73
2023/03/19 03:19:38;;;;;;;0.10;0.10;;;7.70;99.90;230.40;231737.00;;;;5030563;28;20219;-73
2023/03/19 03:22:08;;;;;;;0.10;0.10;;;7.70;99.90;230.40;231737.00;;;;5022561;28;20273;-72
2023/03/19 03:24:38;;;;;;;0.10;0.10;;;7.70;99.90;230.40;231737.00;;;;5029158;28;20670;-71
2023/03/19 03:27:07;;;;;;;0.10;0.10;;;7.60;99.90;230.40;231737.00;;;;5031084;28;20200;-74
2023/03/19 03:29:35;;;;;;;0.10;0.10;;;7.70;99.90;230.40;231737.00;;;;5016397;28;20215;-74
2023/03/19 03:32:03;;;;;;;0.10;0.10;;;7.70;99.90;230.40;231737.00;;;;5013212;28;20666;-74
2023/03/19 03:34:33;;;;;;;0.10;0.10;;;7.70;99.90;230.40;231737.00;;;;5017516;28;20212;-73
2023/03/19 03:37:01;;;;;;;0.10;0.10;;;7.80;99.90;230.40;231737.00;;;;5013489;28;20191;-73
2023/03/19 03:39:29;;;;;;;0.10;0.10;;;7.80;99.90;230.40;231737.00;;;;5014452;28;20290;-74
2023/03/19 03:41:57;;;;;;;0.10;0.10;;;7.80;99.90;230.40;231737.00;;;;5010747;28;20234;-74
2023/03/19 03:44:26;;;;;;;0.10;0.10;;;7.80;99.90;230.40;231737.00;;;;5007852;28;20199;-74
2023/03/19 03:46:54;;;;;;;0.10;0.10;;;7.80;99.90;230.40;231737.00;;;;5030167;28;20253;-72
2023/03/19 03:49:23;;;;;;;0.10;0.10;;;7.70;99.90;230.40;231737.00;;;;5016146;28;20270;-73
2023/03/19 03:51:52;;;;;;;0.10;0.10;;;7.60;99.90;230.40;231737.00;;;;5023904;28;20211;-74
2023/03/19 03:54:21;;;;;;;0.10;0.10;;;7.60;99.90;230.40;231737.00;;;;5030205;28;20233;-73
2023/03/19 03:56:49;;;;;;;0.10;0.10;;;7.60;99.90;230.40;231737.00;;;;5035547;28;20207;-73
2023/03/19 03:59:17;;;;;;;0.10;0.10;;;7.60;99.90;230.40;231737.00;;;;5026619;28;20290;-73
2023/03/19 04:01:45;;;;;;;0.10;0.10;;;7.70;99.90;230.40;231737.00;;;;5030809;28;20233;-73
2023/03/19 04:04:14;;;;;;;0.10;0.10;;;7.70;99.90;230.40;231737.00;;;;5029068;28;20541;-73
2023/03/19 04:06:42;;;;;;;0.10;0.10;;;7.70;99.90;230.40;231737.00;;;;5015897;28;20537;-73
2023/03/19 04:09:22;;;;;;;0.10;0.10;;;7.70;99.90;230.40;231737.00;;;;5025279;28;20195;-75
2023/03/19 04:11:50;;;;;;;0.10;0.10;;;7.70;99.90;230.40;231737.00;;;;5005333;28;20699;-73
2023/03/19 04:14:19;;;;;;;0.10;0.10;;;7.70;99.90;230.40;231737.00;;;;5008448;28;20311;-74
2023/03/19 04:16:47;;;;;;;0.10;0.10;;;7.70;99.90;230.40;231737.00;;;;5032679;28;20207;-73
2023/03/19 04:19:15;;;;;;;0.10;0.10;;;7.70;99.90;230.40;231737.00;;;;5016175;28;20202;-74
2023/03/19 04:21:43;;;;;;;0.10;0.10;;;7.70;99.90;230.40;231737.00;;;;5026071;28;20258;-73
2023/03/19 04:24:11;;;;;;;0.10;0.10;;;7.70;99.90;230.40;231737.00;;;;5018796;28;20285;-73
2023/03/19 04:26:42;;;;;;;0.10;0.10;;;7.70;99.90;230.40;231737.00;;;;5025677;28;20215;-73
2023/03/19 04:29:09;;;;;;;0.10;0.10;;;7.70;99.90;230.40;231737.00;;;;5017996;28;20204;-73
2023/03/19 04:31:38;;;;;;;0.10;0.10;;;7.70;99.90;230.40;231737.00;;;;5033359;28;20211;-73
2023/03/19 04:34:06;;;;;;;0.10;0.10;;;7.70;99.90;230.40;231737.00;;;;5029296;28;20295;-73
2023/03/19 04:36:35;;;;;;;0.10;0.10;;;7.70;99.90;230.40;231737.00;;;;5018109;28;20214;-74
2023/03/19 04:39:03;;;;;;;0.10;0.10;;;7.70;99.90;230.40;231737.00;;;;5030309;28;20199;-74
2023/03/19 04:41:32;;;;;;;0.10;0.10;;;7.70;99.90;230.40;231737.00;;;;5021496;28;20286;-73
2023/03/19 04:44:26;;;;;;;0.10;0.10;;;7.70;99.90;230.40;231737.00;;;;5030394;28;20329;-73
2023/03/19 04:46:55;;;;;;;0.10;0.10;;;7.70;99.90;230.40;231737.00;;;;5030932;28;20666;-73
2023/03/19 04:49:24;;;;;;;0.10;0.10;;;7.60;99.90;230.40;231737.00;;;;5037335;28;20238;-73
2023/03/19 04:51:56;;;;;;;0.10;0.10;;;7.60;99.90;230.40;231737.00;;;;5033296;28;20196;-74
2023/03/19 04:54:24;;;;;;;0.10;0.10;;;7.60;99.90;230.40;231737.00;;;;5033230;28;20195;-73
2023/03/19 04:56:53;;;;;;;0.10;0.10;;;7.60;99.90;230.40;231737.00;;;;5011912;28;20686;-73
2023/03/19 04:59:23;;;;;;;0.10;0.10;;;7.60;99.90;230.40;231737.00;;;;5029882;28;20195;-73
2023/03/19 05:01:52;;;;;;;0.10;0.10;;;7.50;99.90;230.40;231737.00;;;;5017073;28;20199;-73
2023/03/19 05:04:23;;;;;;;0.10;0.10;;;7.40;99.90;230.40;231737.00;;;;5014274;28;20302;-73
2023/03/19 05:06:55;;;;;;;0.10;0.10;;;7.40;99.90;230.40;231737.00;;;;5032447;28;20200;-73
2023/03/19 05:09:23;;;;;;;0.10;0.10;;;7.40;99.90;230.40;231737.00;;;;5009687;28;20215;-73
2023/03/19 05:11:51;;;;;;;0.10;0.10;;;7.40;99.90;230.40;231737.00;;;;5013125;28;20551;-72
2023/03/19 05:14:21;;;;;;;0.10;0.10;;;7.40;99.90;230.40;231737.00;;;;5027658;28;20228;-73
2023/03/19 05:17:01;;;;;;;0.10;0.10;;;7.40;99.90;230.40;231737.00;;;;5025846;28;20204;-73
2023/03/19 05:19:41;;;;;;;0.10;0.10;;;7.40;99.90;230.40;231737.00;;;;5031467;28;20706;-73
2023/03/19 05:22:09;;;;;;;0.10;0.10;;;7.40;99.90;230.40;231737.00;;;;5041938;28;20212;-73
2023/03/19 05:24:38;;;;;;;0.10;0.10;;;7.40;99.90;230.40;231737.00;;;;5020898;28;20199;-73
2023/03/19 05:27:08;;;;;;;0.10;0.10;;;7.40;99.90;230.40;231737.00;;;;5046267;28;20203;-73
2023/03/19 05:29:51;;;;;;;0.10;0.10;;;7.40;99.90;230.40;231737.00;;;;5032397;28;20224;-73
2023/03/19 05:32:53;;;;;;;0.10;0.10;;;7.50;99.90;230.40;231737.00;;;;5018701;28;20697;-74
2023/03/19 05:35:31;;;;;;;0.10;0.10;;;7.50;99.90;230.40;231737.00;;;;5033519;28;20290;-74
2023/03/19 05:38:01;;;;;;;0.10;0.10;;;7.50;99.90;230.40;231737.00;;;;5037606;28;20202;-73
2023/03/19 05:40:30;;;;;;;0.10;0.10;;;7.50;99.90;230.40;231737.00;;;;5025891;28;20632;-74
2023/03/19 05:43:01;;;;;;;0.10;0.10;;;7.50;99.90;230.40;231737.00;;;;5021498;28;20591;-74
2023/03/19 05:45:30;;;;;;;0.10;0.10;;;7.60;99.90;230.40;231737.00;;;;5015590;28;20254;-73
2023/03/19 05:48:06;;;;;;;0.10;0.10;;;7.60;99.90;230.40;231737.00;;;;5021576;28;20571;-74
2023/03/19 05:50:41;;;;;;;0.10;0.10;;;7.50;99.90;230.40;231737.00;;;;5036337;28;20286;-74
2023/03/19 05:53:17;;;;;;;0.10;0.10;;;7.60;99.90;230.40;231737.00;;;;5037973;28;20217;-74
2023/03/19 05:55:59;;;;;;;0.10;0.10;;;7.60;99.90;230.40;231737.00;;;;5018825;28;20283;-73
2023/03/19 05:58:29;;;;;;;0.10;0.10;;;7.60;99.90;230.40;231737.00;;;;5029163;28;20196;-75
2023/03/19 06:00:57;;;;;;;0.10;0.10;;;7.70;99.90;230.40;231737.00;;;;5036729;28;20655;-75
2023/03/19 06:03:27;;;;;;;0.10;0.10;;;7.70;99.90;230.40;231737.00;;;;5034589;28;20687;-73
2023/03/19 06:05:58;;;;;;;0.10;0.10;;;7.70;99.90;230.40;231737.00;;;;5018456;28;20192;-72
2023/03/19 06:08:47;;;;;;;0.10;0.10;;;7.70;99.90;230.40;231737.00;;;;5016871;28;20201;-74
2023/03/19 06:11:19;;;;;;;0.10;0.10;;;7.80;99.90;230.40;231737.00;;;;5025781;28;20211;-73
2023/03/19 06:13:55;;;;;;;0.10;0.10;;;7.90;99.90;230.40;231737.00;;;;5033674;28;20692;-73
2023/03/19 06:16:23;;;;;;;0.10;0.10;;;7.90;99.90;230.40;231737.00;;;;5031428;28;20242;-73
2023/03/19 06:18:55;;;;;;;0.10;0.10;;;8.00;99.90;230.40;231737.00;;;;5012240;28;20295;-74
2023/03/19 06:21:28;;;;;;;0.10;0.10;;;8.00;99.90;230.40;231737.00;;;;5036553;28;20211;-73
2023/03/19 06:23:58;;;;;;;0.10;0.10;;;8.00;99.90;230.40;231737.00;;;;5038692;28;20247;-75
2023/03/19 06:26:34;;;;;;;0.10;0.10;;;8.00;99.90;230.40;231737.00;;;;5028867;28;20203;-73
2023/03/19 06:29:07;;;;;;;0.10;0.10;;;8.10;99.90;230.40;231737.00;;;;5014306;28;20202;-74
2023/03/19 06:31:38;;;;;;;0.10;0.10;;;8.10;99.90;230.40;231737.00;;;;5030470;28;20259;-73
2023/03/19 06:34:18;;;;;;;0.10;0.10;;;8.20;99.90;230.40;231737.00;;;;5025145;28;20211;-74
2023/03/19 06:36:47;;;;;;;0.10;0.10;;;8.20;99.90;230.40;231737.00;;;;5031273;28;20587;-76
2023/03/19 06:39:17;;;;;;;0.10;0.10;;;8.30;99.90;230.40;231737.00;;;;5025347;28;20239;-74
2023/03/19 06:41:45;;;;;;;0.10;0.10;;;8.30;99.90;230.40;231737.00;;;;5008621;28;20666;-74
2023/03/19 06:44:17;;;;;;;0.10;0.10;;;8.30;99.90;230.40;231737.00;;;;5009183;28;20602;-75
2023/03/19 06:46:45;;;;;;;0.10;0.10;;;8.30;99.90;230.40;231737.00;;;;5012333;28;20200;-72
2023/03/19 06:49:14;;;;;;;0.10;0.10;;;8.40;99.90;230.40;231737.00;;;;5008805;28;20191;-71
2023/03/19 06:51:43;;;;;;;0.10;0.10;;;8.40;99.90;230.40;231737.00;;;;5009612;28;20188;-73
2023/03/19 06:54:11;;;;;;;0.10;0.10;;;8.40;99.90;230.40;231737.00;;;;5012103;28;20219;-73
2023/03/19 06:56:39;;;;;;;0.10;0.10;;;8.50;99.90;230.40;231737.00;;;;5026622;28;20211;-72
2023/03/19 06:59:11;;;;;;;0.10;0.10;;;8.50;99.90;230.40;231737.00;;;;5012854;28;20286;-73
2023/03/19 07:01:40;;;;;;;0.10;0.10;;;8.50;99.90;230.40;231737.00;;;;5060583;23;20230;-74
2023/03/19 07:04:09;;;;;;;0.10;0.10;;;8.50;99.90;230.40;231737.00;;;;5051128;28;20712;-73
2023/03/19 07:06:37;;;;;;;0.10;0.10;;;8.60;99.90;230.40;231737.00;;;;5049498;28;20690;-74
2023/03/19 07:09:07;;;;;;;0.10;0.10;;;8.60;99.90;230.40;231737.00;;;;5048519;28;20264;-71
2023/03/19 07:11:35;;;;;;;0.10;0.10;;;8.70;99.90;230.40;231737.00;;;;5048605;28;20253;-71
2023/03/19 07:14:04;;;;;;;0.10;0.10;;;8.80;99.90;230.40;231737.00;;;;5048564;28;20190;-71
2023/03/19 07:16:32;;;;;;;0.10;0.10;;;8.80;99.90;230.40;231737.00;;;;5048538;28;20198;-70
2023/03/19 07:19:00;;;;;;;0.10;0.10;;;8.90;99.90;230.40;231737.00;;;;5057404;28;20268;-71
2023/03/19 07:21:28;;;;;;;0.10;0.10;;;8.90;99.90;230.40;231737.00;;;;5042756;28;20417;-73
2023/03/19 07:23:56;;;;;;;0.10;0.10;;;9.00;99.90;230.40;231737.00;;;;5042653;28;20218;-74
2023/03/19 07:26:26;;;;;;;0.10;0.10;;;9.00;99.90;230.40;231737.00;;;;5043844;28;20206;-71
2023/03/19 07:28:54;;;;;;;0.10;0.10;;;9.10;99.90;230.40;231737.00;;;;5044765;28;20273;-71
2023/03/19 07:31:22;;;;;;;0.10;0.10;;;9.10;99.90;230.40;231737.00;;;;5046514;28;20677;-73
2023/03/19 07:33:50;;;;;;;0.10;0.10;;;9.20;99.90;230.40;231737.00;;;;5043392;28;20281;-72
2023/03/19 07:36:20;;;;;;;0.10;0.10;;;9.30;99.90;230.40;231737.00;;;;5045217;28;20270;-72
2023/03/19 07:38:47;;;;;;;0.10;0.10;;;9.40;99.90;230.40;231737.00;;;;5039685;28;20660;-71
2023/03/19 07:41:15;;;;;;;0.10;0.10;;;9.50;99.90;230.40;231737.00;;;;5044055;28;20226;-72
2023/03/19 07:43:45;;;;;;;0.10;0.10;;;9.60;99.90;230.40;231737.00;;;;5047546;28;20447;-71
2023/03/19 07:46:13;;;;;;;0.10;0.10;;;9.70;99.90;230.40;231737.00;;;;5043964;28;20191;-72
2023/03/19 07:48:41;;;;;;;0.10;0.10;;;9.80;99.90;230.40;231737.00;;;;5047253;28;20575;-72
2023/03/19 07:51:10;;;;;;;0.10;0.10;;;9.80;99.90;230.40;231737.00;;;;5045904;28;20214;-73
2023/03/19 07:53:38;;;;;;;0.10;0.10;;;10.00;99.90;230.40;231737.00;;;;5044331;28;20210;-71
2023/03/19 07:56:07;;;;;;;0.10;0.10;;;10.00;99.90;230.40;231737.00;;;;5045086;28;20577;-72
2023/03/19 07:58:35;;;;;;;0.10;0.10;;;10.10;99.90;230.40;231737.00;;;;5043277;28;20272;-72
2023/03/19 08:01:05;;;;;;;0.10;0.10;;;10.20;99.90;230.40;231737.00;;;;5041913;28;20288;-72
2023/03/19 08:03:33;;;;;;;0.10;0.10;;;10.20;99.90;230.40;231737.00;;;;5034627;28;20229;-71
2023/03/19 08:06:02;;;;;;;0.10;0.10;;;10.30;99.90;230.40;231737.00;;;;5045391;28;20198;-71
2023/03/19 08:08:33;;;;;;;0.10;0.10;;;10.40;99.90;230.40;231737.00;;;;5035161;28;20202;-72
2023/03/19 08:11:02;;;;;;;0.10;0.10;;;10.50;99.90;230.40;231737.00;;;;5047439;28;20218;-72
2023/03/19 08:13:30;;;;;;;0.10;0.10;;;10.60;99.90;230.40;231737.00;;;;5047623;28;20205;-72
2023/03/19 08:15:58;;;;;;;0.10;0.10;;;10.60;99.90;230.40;231737.00;;;;5041180;28;20194;-72
2023/03/19 08:18:27;;;;;;;0.10;0.10;;;10.80;99.90;230.40;231737.00;;;;5043405;28;20259;-72
2023/03/19 08:20:55;;;;;;;0.10;0.10;;;10.90;99.90;230.40;231737.00;;;;5045518;28;20247;-72
2023/03/19 08:23:23;;;;;;;0.10;0.10;;;11.00;99.90;230.40;231737.00;;;;5042312;28;20233;-72
2023/03/19 08:25:52;;;;;;;0.10;0.10;;;11.10;99.90;230.40;231737.00;;;;5040502;28;20608;-72
2023/03/19 08:28:20;;;;;;;0.10;0.10;;;11.10;99.90;230.40;231737.00;;;;5039536;28;20225;-72
2023/03/19 08:30:48;;;;;;;0.10;0.10;;;11.20;99.90;230.40;231737.00;;;;5046643;28;20220;-72
2023/03/19 08:33:16;;;;;;;0.10;0.10;;;11.30;99.90;230.40;231737.00;;;;5045106;28;20218;-72
2023/03/19 08:35:46;;;;;;;0.10;0.10;;;11.40;99.90;230.40;231737.00;;;;5044381;28;20206;-71
2023/03/19 08:38:14;;;;;;;0.10;0.10;;;11.50;99.90;230.40;231737.00;;;;5051682;28;20191;-72
2023/03/19 08:40:42;;;;;;;0.10;0.10;;;11.60;99.90;230.40;231737.00;;;;5046164;28;20216;-74
2023/03/19 08:43:10;;;;;;;0.10;0.10;;;11.70;99.90;230.40;231737.00;;;;5049668;28;20213;-72
2023/03/19 08:45:38;;;;;;;0.10;0.10;;;11.80;99.90;230.40;231737.00;;;;5047278;28;20313;-74
2023/03/19 08:48:06;;;;;;;0.10;0.10;;;11.90;99.90;230.40;231737.00;;;;5050108;28;20293;-72
2023/03/19 08:50:34;;;;;;;0.10;0.10;;;12.00;99.90;230.40;231737.00;;;;5042889;28;20222;-72
2023/03/19 08:53:04;;;;;;;0.10;0.10;;;12.10;99.90;230.40;231737.00;;;;5047604;28;20286;-72
2023/03/19 08:55:32;;;;;;;0.10;0.10;;;12.20;99.90;230.40;231737.00;;;;5045555;28;20206;-72
2023/03/19 08:58:00;;;;;;;0.10;0.10;;;12.20;99.90;230.40;231737.00;;;;5046694;28;20241;-72
2023/03/19 09:00:28;;;;;;;0.10;0.10;;;12.30;99.90;230.40;231737.00;;;;5050765;28;20222;-72
2023/03/19 09:02:56;;;;;;;0.10;0.10;;;12.30;99.90;230.40;231737.00;;;;5052760;28;20191;-72
2023/03/19 09:05:24;;;;;;;0.10;0.10;;;12.40;99.90;230.40;231737.00;;;;5046929;28;20214;-72
2023/03/19 09:07:52;;;;;;;0.10;0.10;;;12.40;99.90;230.40;231737.00;;;;5048020;28;20628;-72
2023/03/19 09:10:21;;;;;;;0.10;0.10;;;12.50;99.90;230.40;231737.00;;;;5041661;28;20229;-72
2023/03/19 09:12:49;;;;;;;0.10;0.10;;;12.60;99.90;230.40;231737.00;;;;5050442;28;20240;-73
2023/03/19 09:15:17;;;;;;;0.10;0.10;;;12.70;99.90;230.40;231737.00;;;;5046401;28;20210;-74
2023/03/19 09:17:45;;;;;;;0.10;0.10;;;12.80;99.90;230.40;231737.00;;;;5045242;28;20206;-73
2023/03/19 09:20:13;;;;;;;0.10;0.10;;;12.80;99.90;230.40;231737.00;;;;5042395;28;20769;-72
2023/03/19 09:22:41;;;;;;;0.00;0.00;;;12.80;99.90;230.40;231737.00;;;;5046991;28;20684;-72
2023/03/19 09:25:11;;;;;;;0.10;0.10;;;12.90;99.90;230.40;231737.00;;;;5052901;28;20222;-72
2023/03/19 09:27:40;;;;;;;0.10;0.10;;;13.00;99.90;230.40;231737.00;;;;5052186;28;20198;-73
2023/03/19 09:30:10;;;;;;;0.00;0.00;;;13.00;99.90;230.40;231737.00;;;;5050420;28;20279;-72
2023/03/19 09:32:38;;;;;;;0.10;0.10;;;13.10;99.90;230.40;231737.00;;;;5046829;28;20206;-73
2023/03/19 09:35:08;;;;;;;0.00;0.00;;;13.10;99.90;230.40;231737.00;;;;5049804;28;20273;-72
2023/03/19 09:37:36;;;;;;;0.10;0.10;;;13.20;99.90;230.40;231737.00;;;;5046173;28;20269;-73
2023/03/19 09:40:06;;;;;;;0.10;0.10;;;13.30;99.90;230.40;231737.00;;;;5045973;28;20770;-73
2023/03/19 09:42:58;;;;;;;0.10;0.10;;;13.30;99.90;230.40;231737.00;;;;5049448;28;20572;-74
2023/03/19 09:45:29;;;;;;;0.10;0.10;;;13.40;99.90;230.40;231737.00;;;;5041914;28;20928;-72
2023/03/19 09:48:04;;;;;;;0.10;0.10;;;13.40;99.90;230.40;231737.00;;;;5044736;28;20206;-74
2023/03/19 09:50:35;;;;;;;0.00;0.00;;;13.50;99.90;230.40;231737.00;;;;5042490;28;20276;-75
2023/03/19 09:53:11;;;;;;;0.10;0.10;;;13.60;99.90;230.40;231737.00;;;;5051752;28;20685;-71
2023/03/19 09:55:45;;;;;;;0.10;0.10;;;13.70;99.90;230.40;231737.00;;;;5045569;28;20214;-75
2023/03/19 09:58:20;;;;;;;0.10;0.10;;;13.80;99.90;230.40;231737.00;;;;5047753;28;20573;-75
2023/03/19 10:00:50;;;;;;;0.10;0.10;;;13.90;99.90;230.40;231737.00;;;;5045293;28;20279;-75
2023/03/19 10:03:39;;;;;;;0.10;0.10;;;13.90;99.90;230.40;231737.00;;;;5046315;28;20206;-75
2023/03/19 10:06:26;;;;;;;0.10;0.10;;;14.00;99.90;230.40;231737.00;;;;5038499;28;20227;-72
2023/03/19 10:09:15;;;;;;;0.00;0.00;;;14.10;99.90;230.40;231737.00;;;;5042863;28;20621;-75
2023/03/19 10:12:00;;;;;;;0.00;0.00;;;14.00;99.90;230.40;231737.00;;;;5044730;28;20237;-72
2023/03/19 10:14:56;;;;;;;0.10;0.10;;;14.00;99.90;230.40;231737.00;;;;5044444;28;20198;-74
2023/03/19 10:17:30;;;;;;;0.00;0.00;;;14.00;99.90;230.40;231737.00;;;;5041393;28;20195;-73
2023/03/19 10:20:07;;;;;;;0.00;0.00;;;14.10;99.90;230.40;231737.00;;;;5046779;28;20225;-73
2023/03/19 10:22:41;;;;;;;0.10;0.10;;;14.20;99.90;230.40;231737.00;;;;5050829;28;20295;-73
2023/03/19 10:25:18;;;;;;;0.10;0.10;;;14.30;99.90;230.40;231737.00;;;;5043727;28;20213;-72
2023/03/19 10:27:54;;;;;;;0.10;0.10;;;14.20;99.90;230.40;231737.00;;;;5050063;28;20221;-71
2023/03/19 10:30:23;;;;;;;0.08;0.08;;;14.30;99.90;230.40;231737.00;;;;5043126;28;20273;-74
2023/03/19 10:33:03;;;;;;;0.10;0.10;;;14.40;99.90;230.40;231737.00;;;;5048491;28;20198;-72
2023/03/19 10:35:43;;;;;;;0.10;0.10;;;14.40;99.90;230.40;231737.00;;;;5043452;28;20210;-72
2023/03/19 10:38:22;;;;;;;0.10;0.10;;;14.30;99.90;230.40;231737.00;;;;5050334;28;20202;-72
2023/03/19 10:41:05;;;;;;;0.10;0.10;;;14.20;99.90;230.40;231737.00;;;;5055229;28;20210;-73
2023/03/19 10:43:35;;;;;;;0.10;0.10;;;14.40;99.90;230.40;231737.00;;;;5046673;28;20199;-72
2023/03/19 10:46:14;;;;;;;0.10;0.10;;;14.50;99.90;230.40;231737.00;;;;5042877;28;20218;-73
2023/03/19 10:48:46;;;;;;;0.00;0.00;;;14.50;99.90;230.40;231737.00;;;;5038258;28;20267;-72
2023/03/19 10:51:17;;;;;;;0.10;0.10;;;14.60;99.90;230.40;231737.00;;;;5048423;28;20214;-73
2023/03/19 10:53:49;;;;;;;0.00;0.00;;;14.50;99.90;230.40;231737.00;;;;5042817;28;20565;-74
2023/03/19 10:56:21;;;;;;;0.10;0.10;;;14.50;99.90;230.40;231737.00;;;;5045982;28;20206;-73
2023/03/19 10:58:59;;;;;;;0.10;0.10;;;14.40;99.90;230.40;231737.00;;;;5046106;28;20257;-73
2023/03/19 11:01:34;;;;;;;0.10;0.10;;;14.50;99.90;230.40;231737.00;;;;5039616;28;20759;-73
2023/03/19 11:04:12;;;;;;;0.00;0.00;;;14.60;99.90;230.40;231737.00;;;;5040946;28;20610;-72